createdAt,value
2023-04-30T00:02:20.503Z,78.28
2023-04-30T00:05:22.352Z,78.24
2023-04-30T00:08:24.004Z,78.30
2023-04-30T00:11:25.782Z,78.26
2023-04-30T00:14:27.562Z,78.20
2023-04-30T00:17:29.442Z,78.17
2023-04-30T00:20:31.889Z,78.19
2023-04-30T00:23:33.664Z,78.08
2023-04-30T00:26:35.310Z,78.08
2023-04-30T00:29:37.203Z,78.05
2023-04-30T00:32:39.112Z,78.04
2023-04-30T00:35:41.774Z,78.00
2023-04-30T00:38:43.552Z,77.98
2023-04-30T00:41:45.630Z,78.01
2023-04-30T00:44:47.566Z,77.98
2023-04-30T00:47:49.662Z,78.01
2023-04-30T00:50:51.369Z,78.06
2023-04-30T00:53:53.502Z,78.02
2023-04-30T00:56:55.810Z,78.00
2023-04-30T00:59:58.013Z,78.07
2023-04-30T01:03:00.277Z,78.02
2023-04-30T01:06:02.806Z,77.95
2023-04-30T01:09:04.885Z,77.85
2023-04-30T01:12:20.928Z,77.88
2023-04-30T01:15:37.795Z,77.95
2023-04-30T01:18:47.720Z,77.99
2023-04-30T01:21:50.210Z,78.04
2023-04-30T01:25:00.949Z,78.06
2023-04-30T01:28:16.004Z,77.99
2023-04-30T01:31:19.420Z,78.05
2023-04-30T01:34:21.210Z,78.05
2023-04-30T01:37:37.922Z,78.09
2023-04-30T01:40:45.774Z,78.07
2023-04-30T01:44:11.631Z,78.07
2023-04-30T01:47:29.938Z,78.07
2023-04-30T01:50:46.781Z,78.04
2023-04-30T01:53:49.038Z,78.13
2023-04-30T01:56:55.993Z,78.11
2023-04-30T01:59:57.909Z,78.03
2023-04-30T02:02:59.789Z,77.71
2023-04-30T02:06:01.636Z,77.57
2023-04-30T02:09:05.584Z,77.37
2023-04-30T02:12:07.444Z,77.13
2023-04-30T02:15:09.951Z,77.05
2023-04-30T02:18:11.720Z,76.84
2023-04-30T02:21:13.779Z,76.54
2023-04-30T02:24:15.468Z,76.39
2023-04-30T02:27:17.654Z,76.27
2023-04-30T02:30:20.290Z,76.06
2023-04-30T02:33:22.311Z,75.88
2023-04-30T02:36:23.997Z,75.63
2023-04-30T02:39:26.419Z,75.50
2023-04-30T02:42:28.175Z,75.14
2023-04-30T02:45:31.493Z,75.07
2023-04-30T02:48:33.220Z,74.89
2023-04-30T02:51:34.886Z,74.73
2023-04-30T02:54:36.575Z,74.63
2023-04-30T02:57:38.472Z,74.47
2023-04-30T03:00:40.267Z,74.12
2023-04-30T03:03:42.003Z,73.96
2023-04-30T03:06:43.986Z,73.88
2023-04-30T03:09:46.160Z,73.72
2023-04-30T03:12:47.909Z,73.60
2023-04-30T03:15:49.743Z,73.40
2023-04-30T03:18:51.479Z,73.37
2023-04-30T03:21:54.482Z,73.33
2023-04-30T03:24:56.204Z,73.27
2023-04-30T03:27:57.969Z,73.24
2023-04-30T03:31:04.582Z,73.26
2023-04-30T03:34:06.483Z,73.24
2023-04-30T03:37:08.429Z,73.17
2023-04-30T03:40:11.034Z,73.26
2023-04-30T03:43:12.728Z,73.17
2023-04-30T03:46:14.512Z,73.10
2023-04-30T03:49:16.245Z,73.12
2023-04-30T03:52:17.997Z,73.14
2023-04-30T03:55:20.026Z,73.16
2023-04-30T03:58:22.037Z,73.11
2023-04-30T04:01:24.130Z,73.15
2023-04-30T04:04:25.999Z,73.17
2023-04-30T04:07:28.868Z,73.16
2023-04-30T04:10:31.860Z,73.20
2023-04-30T04:13:33.865Z,73.30
2023-04-30T04:16:36.673Z,73.35
2023-04-30T04:19:38.517Z,73.42
2023-04-30T04:22:40.373Z,73.42
2023-04-30T04:25:43.747Z,73.48
2023-04-30T04:28:47.088Z,73.57
2023-04-30T04:31:50.448Z,73.64
2023-04-30T04:34:53.748Z,73.55
2023-04-30T04:37:55.877Z,73.48
2023-04-30T04:40:57.647Z,73.44
2023-04-30T04:44:01.154Z,73.44
2023-04-30T04:47:03.765Z,73.45
2023-04-30T04:50:07.141Z,73.35
2023-04-30T04:53:08.945Z,73.24
2023-04-30T04:56:10.676Z,73.16
2023-04-30T04:59:12.749Z,73.12
2023-04-30T05:02:14.500Z,73.10
2023-04-30T05:05:16.504Z,73.05
2023-04-30T05:08:18.315Z,73.03
2023-04-30T05:11:22.138Z,72.98
2023-04-30T05:14:24.876Z,73.00
2023-04-30T05:17:26.702Z,72.98
2023-04-30T05:20:28.558Z,72.96
2023-04-30T05:23:30.293Z,73.06
2023-04-30T05:26:31.983Z,73.10
2023-04-30T05:29:33.644Z,73.10
2023-04-30T05:32:35.380Z,73.07
2023-04-30T05:35:37.107Z,73.02
2023-04-30T05:38:38.868Z,72.94
2023-04-30T05:41:40.700Z,72.97
2023-04-30T05:44:42.428Z,72.94
2023-04-30T05:47:44.356Z,72.85
2023-04-30T05:50:46.095Z,72.73
2023-04-30T05:53:47.762Z,72.84
2023-04-30T05:56:49.571Z,72.88
2023-04-30T05:59:51.289Z,72.90
2023-04-30T06:02:53.100Z,72.83
2023-04-30T06:05:54.878Z,72.92
2023-04-30T06:08:57.102Z,72.34
2023-04-30T06:11:58.869Z,72.17
2023-04-30T06:15:00.772Z,71.83
2023-04-30T06:18:02.981Z,71.46
2023-04-30T06:21:04.705Z,71.12
2023-04-30T06:24:06.431Z,71.20
2023-04-30T06:27:08.178Z,70.46
2023-04-30T06:30:10.198Z,69.87
2023-04-30T06:33:11.953Z,69.44
2023-04-30T06:36:13.644Z,69.25
2023-04-30T06:39:16.092Z,68.95
2023-04-30T06:42:17.849Z,68.26
2023-04-30T06:45:20.003Z,67.33
2023-04-30T06:48:22.375Z,66.95
2023-04-30T06:51:24.063Z,66.59
2023-04-30T06:54:28.637Z,66.29
2023-04-30T06:57:31.285Z,65.77
2023-04-30T07:00:33.620Z,64.85
2023-04-30T07:03:35.691Z,64.42
2023-04-30T07:06:37.528Z,64.28
2023-04-30T07:09:39.392Z,64.80
2023-04-30T07:12:41.355Z,64.07
2023-04-30T07:15:43.236Z,63.73
2023-04-30T07:18:48.227Z,62.82
2023-04-30T07:21:49.857Z,62.85
2023-04-30T07:24:51.524Z,62.24
2023-04-30T07:27:54.755Z,61.92
2023-04-30T07:30:56.721Z,60.88
2023-04-30T07:33:58.460Z,60.50
2023-04-30T07:37:00.721Z,60.32
2023-04-30T07:40:03.136Z,60.24
2023-04-30T07:43:04.933Z,60.76
2023-04-30T07:46:06.947Z,59.76
2023-04-30T07:49:08.810Z,58.64
2023-04-30T07:52:11.884Z,57.77
2023-04-30T07:55:13.620Z,57.59
2023-04-30T07:58:15.425Z,56.77
2023-04-30T08:01:17.331Z,56.13
2023-04-30T08:04:19.077Z,56.22
2023-04-30T08:07:21.762Z,55.99
2023-04-30T08:10:23.570Z,55.87
2023-04-30T08:13:25.486Z,55.86
2023-04-30T08:16:27.518Z,56.15
2023-04-30T08:19:29.204Z,56.24
2023-04-30T08:22:31.007Z,56.70
2023-04-30T08:25:33.593Z,54.98
2023-04-30T08:28:35.679Z,55.09
2023-04-30T08:31:37.587Z,54.99
2023-04-30T08:34:42.962Z,53.89
2023-04-30T08:37:44.888Z,53.76
2023-04-30T08:40:56.183Z,52.73
2023-04-30T08:44:01.025Z,52.13
2023-04-30T08:47:03.146Z,51.26
2023-04-30T08:50:05.729Z,51.15
2023-04-30T08:53:08.602Z,50.55
2023-04-30T08:56:10.892Z,49.84
2023-04-30T08:59:13.141Z,49.33
2023-04-30T09:02:14.945Z,50.46
2023-04-30T09:05:16.648Z,51.18
2023-04-30T09:08:19.740Z,49.72
2023-04-30T09:11:25.852Z,49.15
2023-04-30T09:14:27.872Z,47.99
2023-04-30T09:17:30.408Z,47.73
2023-04-30T09:20:32.250Z,48.09
2023-04-30T09:23:33.993Z,47.66
2023-04-30T09:26:38.080Z,47.67
2023-04-30T09:29:39.830Z,47.05
2023-04-30T09:32:57.009Z,47.30
2023-04-30T09:36:08.651Z,47.19
2023-04-30T09:39:15.271Z,46.93
2023-04-30T09:42:19.001Z,47.00
2023-04-30T09:45:20.761Z,45.45
2023-04-30T09:48:24.044Z,45.85
2023-04-30T09:51:26.640Z,45.94
2023-04-30T09:54:30.263Z,45.56
2023-04-30T09:57:35.613Z,44.76
2023-04-30T10:00:38.980Z,45.09
2023-04-30T10:03:42.386Z,45.06
2023-04-30T10:06:45.504Z,44.39
2023-04-30T10:10:11.070Z,44.39
2023-04-30T10:13:18.301Z,44.17
2023-04-30T10:16:39.760Z,43.18
2023-04-30T10:19:47.933Z,43.46
2023-04-30T10:22:49.861Z,43.21
2023-04-30T10:25:52.315Z,43.27
2023-04-30T10:28:58.426Z,42.49
2023-04-30T10:32:00.700Z,42.38
2023-04-30T10:35:32.641Z,41.72
2023-04-30T10:38:37.259Z,41.83
2023-04-30T10:41:39.815Z,40.94
2023-04-30T10:44:41.637Z,40.85
2023-04-30T10:47:46.717Z,40.42
2023-04-30T10:50:50.655Z,40.52
2023-04-30T10:53:55.413Z,40.32
2023-04-30T10:57:13.476Z,39.91
2023-04-30T11:00:19.552Z,39.27
2023-04-30T11:03:21.657Z,38.82
2023-04-30T11:06:26.060Z,39.13
2023-04-30T11:09:39.453Z,39.63
2023-04-30T11:12:47.151Z,38.74
2023-04-30T11:15:48.892Z,37.87
2023-04-30T11:18:51.024Z,37.50
2023-04-30T11:22:12.996Z,36.49
2023-04-30T11:25:21.923Z,37.85
2023-04-30T11:28:26.146Z,37.38
2023-04-30T11:31:34.411Z,37.21
2023-04-30T11:34:37.417Z,37.15
2023-04-30T11:37:43.095Z,36.88
2023-04-30T11:40:48.332Z,37.31
2023-04-30T11:43:50.036Z,36.58
2023-04-30T11:46:52.538Z,36.47
2023-04-30T11:49:56.802Z,36.50
2023-04-30T11:53:04.764Z,37.02
2023-04-30T11:56:07.007Z,37.46
2023-04-30T11:59:12.030Z,36.60
2023-04-30T12:02:15.907Z,36.66
2023-04-30T12:05:19.923Z,36.26
2023-04-30T12:08:21.944Z,36.34
2023-04-30T12:11:29.387Z,35.40
2023-04-30T12:14:33.169Z,35.92
2023-04-30T12:17:35.569Z,35.27
2023-04-30T12:20:37.663Z,35.32
2023-04-30T12:23:39.696Z,36.22
2023-04-30T12:26:41.768Z,35.96
2023-04-30T12:29:45.861Z,36.24
2023-04-30T12:32:52.589Z,36.06
2023-04-30T12:35:57.347Z,36.12
2023-04-30T12:39:06.602Z,36.81
2023-04-30T12:42:08.584Z,36.89
2023-04-30T12:45:11.091Z,37.16
2023-04-30T12:48:14.665Z,37.35
2023-04-30T12:51:19.404Z,36.46
2023-04-30T12:54:26.084Z,35.97
2023-04-30T12:57:28.435Z,36.16
2023-04-30T13:00:45.643Z,36.14
2023-04-30T13:03:47.768Z,36.31
2023-04-30T13:06:49.614Z,36.33
2023-04-30T13:09:51.555Z,35.87
2023-04-30T13:12:53.477Z,36.06
2023-04-30T13:15:55.269Z,35.66
2023-04-30T13:18:56.939Z,35.49
2023-04-30T13:21:59.062Z,35.55
2023-04-30T13:25:00.744Z,36.16
2023-04-30T13:28:02.478Z,36.34
2023-04-30T13:31:04.231Z,35.94
2023-04-30T13:34:06.089Z,35.79
2023-04-30T13:37:08.259Z,35.71
2023-04-30T13:40:10.274Z,35.27
2023-04-30T13:43:11.963Z,35.53
2023-04-30T13:46:14.466Z,34.89
2023-04-30T13:49:16.220Z,34.14
2023-04-30T13:52:17.959Z,34.16
2023-04-30T13:55:19.814Z,34.35
2023-04-30T13:58:21.518Z,34.66
2023-04-30T14:01:23.288Z,34.67
2023-04-30T14:04:25.053Z,34.84
2023-04-30T14:07:26.825Z,35.63
2023-04-30T14:10:28.622Z,35.13
2023-04-30T14:13:30.529Z,34.42
2023-04-30T14:16:32.392Z,34.15
2023-04-30T14:19:34.415Z,33.74
2023-04-30T14:22:37.844Z,33.59
2023-04-30T14:25:39.757Z,33.68
2023-04-30T14:28:41.515Z,33.61
2023-04-30T14:31:43.223Z,32.85
2023-04-30T14:34:44.975Z,33.11
2023-04-30T14:37:46.629Z,34.52
2023-04-30T14:40:48.315Z,34.16
2023-04-30T14:43:52.008Z,34.00
2023-04-30T14:46:53.888Z,34.47
2023-04-30T14:49:58.433Z,34.83
2023-04-30T14:53:00.150Z,34.47
2023-04-30T14:56:03.049Z,34.69
2023-04-30T14:59:04.790Z,34.46
2023-04-30T15:02:06.599Z,34.51
2023-04-30T15:05:08.665Z,34.63
2023-04-30T15:08:10.356Z,34.75
2023-04-30T15:11:12.643Z,34.94
2023-04-30T15:14:16.275Z,34.75
2023-04-30T15:17:18.010Z,35.07
2023-04-30T15:20:19.824Z,35.08
2023-04-30T15:23:22.091Z,35.09
2023-04-30T15:26:25.265Z,35.36
2023-04-30T15:29:27.082Z,34.84
2023-04-30T15:32:29.295Z,34.51
2023-04-30T15:35:31.456Z,34.81
2023-04-30T15:38:33.934Z,34.74
2023-04-30T15:41:35.956Z,34.65
2023-04-30T15:44:38.063Z,34.69
2023-04-30T15:47:40.563Z,35.00
2023-04-30T15:50:42.339Z,35.24
2023-04-30T15:53:44.052Z,35.27
2023-04-30T15:56:47.184Z,34.77
2023-04-30T15:59:48.858Z,34.75
2023-04-30T16:02:51.738Z,34.50
2023-04-30T16:06:11.895Z,34.19
2023-04-30T16:09:17.423Z,34.19
2023-04-30T16:12:21.068Z,34.08
2023-04-30T16:15:24.838Z,33.99
2023-04-30T16:18:30.123Z,34.14
2023-04-30T16:21:36.630Z,34.15
2023-04-30T16:24:43.110Z,34.16
2023-04-30T16:27:46.404Z,34.34
2023-04-30T16:30:50.075Z,34.29
2023-04-30T16:33:53.217Z,34.47
2023-04-30T16:36:56.386Z,34.62
2023-04-30T16:40:00.468Z,35.43
2023-04-30T16:46:10.777Z,35.63
2023-04-30T16:49:13.869Z,36.19
2023-04-30T16:52:18.931Z,36.66
2023-04-30T16:55:22.045Z,36.24
2023-04-30T16:58:25.271Z,36.43
2023-04-30T17:01:28.367Z,36.52
2023-04-30T17:04:31.762Z,36.71
2023-04-30T17:07:34.755Z,37.64
2023-04-30T17:10:39.066Z,37.49
2023-04-30T17:13:43.770Z,37.59
2023-04-30T17:16:47.069Z,38.39
2023-04-30T17:19:50.032Z,37.83
2023-04-30T17:22:53.497Z,37.79
2023-04-30T17:25:56.536Z,37.82
2023-04-30T17:28:59.533Z,38.10
2023-04-30T17:32:02.637Z,38.28
2023-04-30T17:35:06.793Z,38.45
2023-04-30T17:38:09.816Z,38.75
2023-04-30T17:41:12.865Z,39.31
2023-04-30T17:44:16.856Z,39.65
2023-04-30T17:47:19.916Z,39.96
2023-04-30T17:50:23.015Z,39.74
2023-04-30T17:53:26.056Z,39.83
2023-04-30T17:56:33.047Z,40.24
2023-04-30T17:59:38.539Z,40.55
2023-04-30T18:02:41.893Z,40.97
2023-04-30T18:05:45.196Z,41.03
2023-04-30T18:08:48.167Z,41.45
2023-04-30T18:11:51.844Z,41.60
2023-04-30T18:14:55.021Z,41.92
2023-04-30T18:17:59.389Z,42.07
2023-04-30T18:21:03.742Z,42.25
2023-04-30T18:24:06.703Z,42.83
2023-04-30T18:27:10.203Z,42.90
2023-04-30T18:30:13.479Z,43.05
2023-04-30T18:33:16.439Z,43.23
2023-04-30T18:36:19.677Z,43.73
2023-04-30T18:39:22.780Z,44.13
2023-04-30T18:42:25.968Z,44.63
2023-04-30T18:45:29.047Z,44.83
2023-04-30T18:48:32.438Z,44.90
2023-04-30T18:51:35.495Z,44.98
2023-04-30T18:54:38.502Z,45.08
2023-04-30T18:57:42.461Z,45.25
2023-04-30T19:00:45.764Z,45.39
2023-04-30T19:03:48.857Z,45.42
2023-04-30T19:06:54.470Z,46.23
2023-04-30T19:09:58.421Z,46.60
2023-04-30T19:13:01.658Z,46.73
2023-04-30T19:16:04.771Z,47.04
2023-04-30T19:19:07.748Z,47.58
2023-04-30T19:22:11.711Z,47.46
2023-04-30T19:25:14.768Z,47.29
2023-04-30T19:28:17.772Z,47.13
2023-04-30T19:31:22.388Z,47.11
2023-04-30T19:34:28.496Z,47.12
2023-04-30T19:37:31.653Z,47.58
2023-04-30T19:40:34.681Z,47.95
2023-04-30T19:43:38.194Z,48.29
2023-04-30T19:46:42.418Z,48.97
2023-04-30T19:49:47.384Z,48.91
2023-04-30T19:52:50.387Z,48.77
2023-04-30T19:55:53.570Z,48.68
2023-04-30T19:58:56.894Z,48.62
2023-04-30T20:01:59.937Z,49.09
2023-04-30T20:05:04.895Z,49.37
2023-04-30T20:08:09.671Z,49.38
2023-04-30T20:11:12.820Z,49.56
2023-04-30T20:14:16.011Z,49.66
2023-04-30T20:17:19.204Z,49.68
2023-04-30T20:20:25.895Z,49.53
2023-04-30T20:23:28.927Z,49.50
2023-04-30T20:26:32.156Z,49.95
2023-04-30T20:29:36.025Z,49.94
2023-04-30T20:32:40.555Z,50.46
2023-04-30T20:35:45.671Z,50.23
2023-04-30T20:38:49.101Z,50.11
2023-04-30T20:41:53.392Z,50.16
2023-04-30T20:44:56.574Z,50.10
2023-04-30T20:47:59.568Z,50.49
2023-04-30T20:51:02.538Z,50.87
2023-04-30T20:54:05.706Z,50.94
2023-04-30T20:57:09.087Z,51.23
2023-04-30T21:00:13.362Z,51.80
2023-04-30T21:03:16.917Z,51.68
2023-04-30T21:06:20.415Z,51.68
2023-04-30T21:09:23.434Z,51.70
2023-04-30T21:12:28.035Z,51.92
2023-04-30T21:15:35.304Z,51.94
2023-04-30T21:18:38.445Z,52.13
2023-04-30T21:21:41.405Z,52.17
2023-04-30T21:24:44.393Z,52.45
2023-04-30T21:27:47.495Z,52.81
2023-04-30T21:30:50.563Z,53.05
2023-04-30T21:33:53.762Z,53.17
2023-04-30T21:36:57.120Z,53.31
2023-04-30T21:40:00.044Z,53.26
2023-04-30T21:43:03.863Z,53.45
2023-04-30T21:46:07.444Z,53.45
2023-04-30T21:49:10.553Z,53.52
2023-04-30T21:52:13.663Z,53.46
2023-04-30T21:55:17.190Z,53.42
2023-04-30T21:58:20.129Z,53.50
2023-04-30T22:01:27.552Z,53.63
2023-04-30T22:04:30.822Z,53.77
2023-04-30T22:07:34.233Z,53.89
2023-04-30T22:10:37.247Z,54.08
2023-04-30T22:13:40.230Z,54.38
2023-04-30T22:16:43.686Z,54.50
2023-04-30T22:19:46.794Z,54.34
2023-04-30T22:22:49.774Z,54.23
2023-04-30T22:25:53.420Z,54.10
2023-04-30T22:28:57.201Z,54.39
2023-04-30T22:32:01.546Z,54.59
2023-04-30T22:35:06.940Z,54.45
2023-04-30T22:38:11.054Z,54.34
2023-04-30T22:41:14.276Z,54.46
2023-04-30T22:44:17.971Z,54.46
2023-04-30T22:47:21.166Z,54.50
2023-04-30T22:50:24.180Z,54.47
2023-04-30T22:53:28.515Z,54.49
2023-04-30T22:56:31.796Z,54.68
2023-04-30T22:59:34.838Z,54.98
2023-04-30T23:02:37.879Z,55.23
2023-04-30T23:05:40.984Z,55.18
2023-04-30T23:08:44.384Z,55.27
2023-04-30T23:11:48.298Z,55.31
2023-04-30T23:14:51.539Z,55.47
2023-04-30T23:17:54.789Z,55.67
2023-04-30T23:20:59.016Z,55.67
2023-04-30T23:24:03.960Z,55.82
2023-04-30T23:27:08.124Z,56.03
2023-04-30T23:30:11.449Z,56.18
2023-04-30T23:33:14.461Z,56.15
2023-04-30T23:36:17.488Z,56.26
2023-04-30T23:39:20.596Z,56.43
2023-04-30T23:42:23.632Z,56.52
2023-04-30T23:45:26.668Z,56.43
2023-04-30T23:48:30.480Z,56.38
2023-04-30T23:51:33.554Z,56.37
2023-04-30T23:54:36.640Z,56.51
2023-04-30T23:57:39.621Z,56.61
